createdAt,value
2023-03-17T00:01:57.312Z,100917.04
2023-03-17T00:04:27.447Z,100918.64
2023-03-17T00:06:56.843Z,100919.34
2023-03-17T00:09:25.787Z,100919.35
2023-03-17T00:11:54.725Z,100914.90
2023-03-17T00:14:22.886Z,100910.61
2023-03-17T00:16:52.767Z,100907.67
2023-03-17T00:19:32.423Z,100902.66
2023-03-17T00:22:02.505Z,100898.52
2023-03-17T00:24:31.128Z,100895.58
2023-03-17T00:26:59.758Z,100894.79
2023-03-17T00:29:28.093Z,100887.52
2023-03-17T00:31:57.712Z,100886.77
2023-03-17T00:34:25.799Z,100884.30
2023-03-17T00:36:54.535Z,100881.95
2023-03-17T00:39:25.563Z,100886.38
2023-03-17T00:41:55.821Z,100885.23
2023-03-17T00:44:24.356Z,100881.05
2023-03-17T00:46:54.543Z,100881.80
2023-03-17T00:49:25.148Z,100886.04
2023-03-17T00:51:53.315Z,100889.44
2023-03-17T00:54:23.429Z,100889.59
2023-03-17T00:56:52.690Z,100890.27
2023-03-17T00:59:26.444Z,100887.66
2023-03-17T01:01:54.365Z,100886.30
2023-03-17T01:04:24.014Z,100885.27
2023-03-17T01:06:53.099Z,100892.67
2023-03-17T01:09:26.038Z,100894.43
2023-03-17T01:11:55.590Z,100895.13
2023-03-17T01:14:24.951Z,100892.76
2023-03-17T01:16:53.155Z,100895.43
2023-03-17T01:19:21.314Z,100893.90
2023-03-17T01:21:49.361Z,100896.34
2023-03-17T01:24:17.837Z,100894.35
2023-03-17T01:26:45.858Z,100894.73
2023-03-17T01:29:14.923Z,100894.28
2023-03-17T01:31:42.786Z,100895.20
2023-03-17T01:34:11.674Z,100893.70
2023-03-17T01:36:40.716Z,100896.20
2023-03-17T01:39:09.424Z,100893.67
2023-03-17T01:41:37.692Z,100892.19
2023-03-17T01:44:05.714Z,100898.12
2023-03-17T01:46:35.956Z,100901.80
2023-03-17T01:49:22.739Z,100904.94
2023-03-17T01:51:53.611Z,100902.89
2023-03-17T01:54:28.362Z,100900.86
2023-03-17T01:57:03.875Z,100899.45
2023-03-17T01:59:36.595Z,100903.86
2023-03-17T02:02:10.910Z,100902.30
2023-03-17T02:04:40.510Z,100904.70
2023-03-17T02:07:10.242Z,100906.95
2023-03-17T02:09:40.695Z,100912.70
2023-03-17T02:12:10.330Z,100912.98
2023-03-17T02:14:38.180Z,100916.84
2023-03-17T02:17:07.425Z,100914.52
2023-03-17T02:19:35.983Z,100917.34
2023-03-17T02:22:03.996Z,100912.92
2023-03-17T02:24:39.158Z,100912.11
2023-03-17T02:27:13.572Z,100910.60
2023-03-17T02:29:42.317Z,100908.78
2023-03-17T02:32:10.431Z,100907.08
2023-03-17T02:34:38.496Z,100909.33
2023-03-17T02:37:07.997Z,100911.71
2023-03-17T02:39:36.633Z,100912.92
2023-03-17T02:42:06.055Z,100917.93
2023-03-17T02:44:35.929Z,100923.63
2023-03-17T02:47:04.741Z,100927.95
2023-03-17T02:49:33.488Z,100927.84
2023-03-17T02:52:01.750Z,100933.70
2023-03-17T02:54:29.632Z,100937.84
2023-03-17T02:56:57.495Z,100944.41
2023-03-17T02:59:25.945Z,100945.11
2023-03-17T03:01:54.887Z,100946.85
2023-03-17T03:04:24.328Z,100946.66
2023-03-17T03:06:52.514Z,100950.30
2023-03-17T03:09:21.157Z,100953.09
2023-03-17T03:11:49.097Z,100959.27
2023-03-17T03:14:17.064Z,100957.73
2023-03-17T03:16:45.180Z,100959.98
2023-03-17T03:19:13.262Z,100960.54
2023-03-17T03:21:41.530Z,100960.36
2023-03-17T03:24:11.018Z,100958.63
2023-03-17T03:26:38.993Z,100963.08
2023-03-17T03:29:06.904Z,100966.67
2023-03-17T03:31:35.230Z,100971.47
2023-03-17T03:34:03.241Z,100973.70
2023-03-17T03:36:31.207Z,100979.74
2023-03-17T03:39:00.993Z,100983.07
2023-03-17T03:41:29.233Z,100984.34
2023-03-17T03:43:57.430Z,100983.90
2023-03-17T03:46:26.787Z,100982.05
2023-03-17T03:48:55.546Z,100978.66
2023-03-17T03:51:23.480Z,100976.26
2023-03-17T03:53:51.402Z,100976.25
2023-03-17T03:56:19.313Z,100977.97
2023-03-17T03:58:47.664Z,100977.13
2023-03-17T04:01:15.465Z,100977.83
2023-03-17T04:03:43.791Z,100977.85
2023-03-17T04:06:11.887Z,100971.17
2023-03-17T04:08:39.829Z,100969.50
2023-03-17T04:11:08.833Z,100966.98
2023-03-17T04:13:36.677Z,100962.05
2023-03-17T04:16:05.048Z,100961.05
2023-03-17T04:18:33.108Z,100960.59
2023-03-17T04:21:01.751Z,100960.44
2023-03-17T04:23:31.566Z,100957.15
2023-03-17T04:25:59.711Z,100948.20
2023-03-17T04:28:27.727Z,100952.35
2023-03-17T04:30:56.292Z,100956.48
2023-03-17T04:33:24.237Z,100961.10
2023-03-17T04:35:52.438Z,100963.73
2023-03-17T04:38:20.727Z,100972.36
2023-03-17T04:40:50.621Z,100968.94
2023-03-17T04:43:18.665Z,100966.91
2023-03-17T04:45:46.850Z,100963.33
2023-03-17T04:48:14.814Z,100959.54
2023-03-17T04:50:42.856Z,100961.21
2023-03-17T04:53:10.703Z,100960.05
2023-03-17T04:55:38.614Z,100962.30
2023-03-17T04:58:06.912Z,100961.43
2023-03-17T05:00:38.831Z,100959.18
2023-03-17T05:03:20.013Z,100961.42
2023-03-17T05:05:54.094Z,100967.98
2023-03-17T05:08:22.030Z,100964.36
2023-03-17T05:10:51.422Z,100963.82
2023-03-17T05:13:19.309Z,100965.86
2023-03-17T05:15:48.172Z,100969.67
2023-03-17T05:18:16.894Z,100974.69
2023-03-17T05:20:45.615Z,100982.77
2023-03-17T05:23:13.752Z,100982.77
2023-03-17T05:25:42.158Z,100983.28
2023-03-17T05:28:10.536Z,100984.98
2023-03-17T05:30:38.561Z,100989.42
2023-03-17T05:33:06.830Z,100996.60
2023-03-17T05:35:35.037Z,101001.05
2023-03-17T05:38:03.517Z,101002.23
2023-03-17T05:40:32.802Z,101001.70
2023-03-17T05:43:02.122Z,101005.26
2023-03-17T05:45:30.959Z,101006.74
2023-03-17T05:48:06.602Z,101005.34
2023-03-17T05:50:35.978Z,101007.36
2023-03-17T05:53:04.066Z,101007.13
2023-03-17T05:55:32.163Z,101011.18
2023-03-17T05:58:01.065Z,101010.23
2023-03-17T06:00:29.860Z,101013.43
2023-03-17T06:02:58.301Z,101012.34
2023-03-17T06:05:26.579Z,101013.14
2023-03-17T06:07:56.605Z,101011.71
2023-03-17T06:10:25.539Z,101016.30
2023-03-17T06:12:53.560Z,101020.55
2023-03-17T06:15:21.775Z,101025.95
2023-03-17T06:17:50.053Z,101027.52
2023-03-17T06:20:22.335Z,101031.13
2023-03-17T06:23:03.773Z,101028.69
2023-03-17T06:25:34.799Z,101027.11
2023-03-17T06:28:06.422Z,101028.42
2023-03-17T06:30:38.088Z,101027.81
2023-03-17T06:33:08.277Z,101028.92
2023-03-17T06:35:36.703Z,101031.74
2023-03-17T06:38:05.276Z,101032.15
2023-03-17T06:40:34.170Z,101030.80
2023-03-17T06:43:03.051Z,101032.74
2023-03-17T06:45:33.208Z,101031.41
2023-03-17T06:48:02.477Z,101033.02
2023-03-17T06:50:30.968Z,101037.41
2023-03-17T06:52:59.019Z,101034.34
2023-03-17T06:55:27.523Z,101033.89
2023-03-17T06:57:55.419Z,101033.73
2023-03-17T07:00:23.904Z,101035.30
2023-03-17T07:02:52.700Z,101031.52
2023-03-17T07:05:20.638Z,101039.60
2023-03-17T07:07:51.527Z,101040.13
2023-03-17T07:10:19.548Z,101038.04
2023-03-17T07:12:47.925Z,101037.64
2023-03-17T07:15:17.321Z,101036.86
2023-03-17T07:17:48.116Z,101032.96
2023-03-17T07:20:16.678Z,101031.23
2023-03-17T07:22:44.673Z,101030.71
2023-03-17T07:25:12.780Z,101032.44
2023-03-17T07:27:40.894Z,101027.67
2023-03-17T07:30:09.461Z,101026.53
2023-03-17T07:32:37.708Z,101024.73
2023-03-17T07:35:08.246Z,101024.55
2023-03-17T07:37:36.473Z,101025.28
2023-03-17T07:40:06.322Z,101023.13
2023-03-17T07:42:34.685Z,101023.18
2023-03-17T07:45:05.207Z,101029.38
2023-03-17T07:47:33.335Z,101030.80
2023-03-17T07:50:01.326Z,101031.63
2023-03-17T07:52:29.550Z,101027.01
2023-03-17T07:54:58.545Z,101020.48
2023-03-17T07:57:28.782Z,101016.73
2023-03-17T07:59:56.749Z,101011.52
2023-03-17T08:02:25.326Z,101006.05
2023-03-17T08:04:54.206Z,101005.31
2023-03-17T08:07:22.265Z,101005.55
2023-03-17T08:09:50.454Z,101000.88
2023-03-17T08:12:18.592Z,100998.17
2023-03-17T08:14:46.661Z,100994.27
2023-03-17T08:17:14.755Z,100992.54
2023-03-17T08:19:44.041Z,100992.89
2023-03-17T08:22:13.292Z,100991.46
2023-03-17T08:24:43.100Z,100987.15
2023-03-17T08:27:11.860Z,100985.10
2023-03-17T08:29:39.993Z,100985.77
2023-03-17T08:32:08.986Z,100983.91
2023-03-17T08:34:37.600Z,100980.64
2023-03-17T08:37:07.959Z,100977.36
2023-03-17T08:39:37.933Z,100974.41
2023-03-17T08:42:06.300Z,100974.54
2023-03-17T08:44:35.224Z,100976.23
2023-03-17T08:47:03.850Z,100981.46
2023-03-17T08:49:35.086Z,100984.37
2023-03-17T08:52:03.570Z,100990.80
2023-03-17T08:54:31.489Z,100989.62
2023-03-17T08:56:59.392Z,100987.77
2023-03-17T08:59:27.694Z,100988.48
2023-03-17T09:01:57.962Z,100986.90
2023-03-17T09:04:26.685Z,100992.38
2023-03-17T09:07:03.742Z,100998.98
2023-03-17T09:09:35.481Z,101002.27
2023-03-17T09:12:07.044Z,101003.00
2023-03-17T09:14:43.379Z,100998.74
2023-03-17T09:17:14.587Z,100996.42
2023-03-17T09:19:43.873Z,101001.89
2023-03-17T09:22:18.799Z,101004.55
2023-03-17T09:24:49.400Z,101002.98
2023-03-17T09:27:17.482Z,101003.03
2023-03-17T09:29:45.673Z,100999.73
2023-03-17T09:32:14.033Z,101000.40
2023-03-17T09:34:42.094Z,100997.39
2023-03-17T09:37:10.412Z,100992.55
2023-03-17T09:39:38.461Z,100990.59
2023-03-17T09:42:36.472Z,100988.27
2023-03-17T09:45:17.504Z,100988.77
2023-03-17T09:47:54.494Z,100983.32
2023-03-17T09:50:32.290Z,100986.27
2023-03-17T09:53:05.122Z,100989.53
2023-03-17T09:55:35.933Z,100986.52
2023-03-17T09:58:04.426Z,100986.34
2023-03-17T10:00:33.010Z,100986.05
2023-03-17T10:03:02.092Z,100988.11
2023-03-17T10:05:34.992Z,100987.93
2023-03-17T10:08:15.647Z,100981.75
2023-03-17T10:10:55.100Z,100982.76
2023-03-17T10:13:42.429Z,100979.95
2023-03-17T10:16:18.620Z,100980.97
2023-03-17T10:18:55.313Z,100973.75
2023-03-17T10:21:28.914Z,100973.34
2023-03-17T10:24:00.318Z,100976.23
2023-03-17T10:26:34.723Z,100978.55
2023-03-17T10:29:06.079Z,100978.40
2023-03-17T10:31:35.751Z,100975.98
2023-03-17T10:34:16.279Z,100969.80
2023-03-17T10:37:07.292Z,100965.45
2023-03-17T10:39:44.876Z,100960.72
2023-03-17T10:42:22.508Z,100962.92
2023-03-17T10:45:13.610Z,100964.83
2023-03-17T10:47:47.201Z,100964.86
2023-03-17T10:50:15.533Z,100959.52
2023-03-17T10:52:47.569Z,100956.55
2023-03-17T10:55:20.285Z,100957.98
2023-03-17T10:57:57.418Z,100954.91
2023-03-17T11:00:29.428Z,100951.16
2023-03-17T11:02:59.559Z,100944.02
2023-03-17T11:05:29.821Z,100939.60
2023-03-17T11:08:07.321Z,100940.56
2023-03-17T11:10:40.716Z,100939.35
2023-03-17T11:13:09.515Z,100935.27
2023-03-17T11:15:46.290Z,100934.66
2023-03-17T11:18:28.424Z,100932.02
2023-03-17T11:21:09.759Z,100928.38
2023-03-17T11:23:52.614Z,100926.64
2023-03-17T11:26:41.870Z,100925.15
2023-03-17T11:29:19.761Z,100917.16
2023-03-17T11:31:56.700Z,100901.92
2023-03-17T11:34:24.608Z,100898.95
2023-03-17T11:37:13.988Z,100904.08
2023-03-17T11:39:50.781Z,100901.77
2023-03-17T11:42:36.104Z,100900.68
2023-03-17T11:45:12.957Z,100899.97
2023-03-17T11:48:06.112Z,100896.59
2023-03-17T11:50:39.461Z,100889.52
2023-03-17T11:53:43.520Z,100884.73
2023-03-17T11:56:33.306Z,100883.13
2023-03-17T11:59:14.095Z,100877.94
2023-03-17T12:02:21.363Z,100878.75
2023-03-17T12:05:05.133Z,100878.09
2023-03-17T12:07:48.245Z,100870.70
2023-03-17T12:10:49.515Z,100870.61
2023-03-17T12:13:23.240Z,100871.73
2023-03-17T12:16:04.346Z,100870.73
2023-03-17T12:18:38.450Z,100863.36
2023-03-17T12:21:20.861Z,100863.80
2023-03-17T12:23:52.439Z,100859.60
2023-03-17T12:26:37.203Z,100853.02
2023-03-17T12:29:43.182Z,100849.48
2023-03-17T12:32:18.480Z,100853.38
2023-03-17T12:35:02.463Z,100850.62
2023-03-17T12:37:30.776Z,100846.61
2023-03-17T12:40:15.056Z,100846.09
2023-03-17T12:42:52.525Z,100837.44
2023-03-17T12:45:30.614Z,100832.73
2023-03-17T12:48:04.449Z,100831.94
2023-03-17T12:50:35.369Z,100829.34
2023-03-17T12:53:12.486Z,100829.76
2023-03-17T12:55:42.552Z,100824.98
2023-03-17T12:58:32.517Z,100824.02
2023-03-17T13:01:08.983Z,100821.43
2023-03-17T13:03:45.793Z,100821.42
2023-03-17T13:06:21.372Z,100818.12
2023-03-17T13:08:52.606Z,100820.67
2023-03-17T13:11:47.764Z,100818.91
2023-03-17T13:14:27.106Z,100818.66
2023-03-17T13:17:18.756Z,100819.09
2023-03-17T13:20:08.422Z,100815.92
2023-03-17T13:22:42.116Z,100815.67
2023-03-17T13:25:27.499Z,100810.95
2023-03-17T13:28:20.783Z,100808.88
2023-03-17T13:30:54.907Z,100802.77
2023-03-17T13:33:31.131Z,100801.70
2023-03-17T13:36:10.123Z,100803.54
2023-03-17T13:39:19.276Z,100806.08
2023-03-17T13:42:19.822Z,100799.15
2023-03-17T13:45:09.634Z,100791.50
2023-03-17T13:47:42.581Z,100795.12
2023-03-17T13:50:17.566Z,100795.61
2023-03-17T13:52:50.083Z,100793.95
2023-03-17T13:55:18.149Z,100792.77
2023-03-17T13:58:16.705Z,100791.63
2023-03-17T14:00:48.997Z,100794.06
2023-03-17T14:03:29.261Z,100795.04
2023-03-17T14:06:01.279Z,100790.67
2023-03-17T14:08:35.688Z,100789.45
2023-03-17T14:11:09.014Z,100789.59
2023-03-17T14:13:59.993Z,100788.05
2023-03-17T14:16:30.241Z,100787.45
2023-03-17T14:19:09.541Z,100779.38
2023-03-17T14:21:37.603Z,100778.42
2023-03-17T14:24:19.878Z,100775.52
2023-03-17T14:26:48.888Z,100767.84
2023-03-17T14:29:21.436Z,100764.28
2023-03-17T14:32:00.378Z,100766.75
2023-03-17T14:34:28.440Z,100762.54
2023-03-17T14:37:01.605Z,100761.88
2023-03-17T14:39:29.729Z,100763.86
2023-03-17T14:42:05.852Z,100766.14
2023-03-17T14:44:38.954Z,100764.45
2023-03-17T14:47:21.011Z,100763.06
2023-03-17T14:49:51.273Z,100759.15
2023-03-17T14:52:27.931Z,100754.17
2023-03-17T14:54:59.287Z,100750.40
2023-03-17T14:57:31.818Z,100750.19
2023-03-17T15:00:22.854Z,100752.61
2023-03-17T15:02:58.447Z,100749.63
2023-03-17T15:05:39.878Z,100748.70
2023-03-17T15:08:36.572Z,100746.86
2023-03-17T15:11:06.372Z,100746.29
2023-03-17T15:13:37.616Z,100745.46
2023-03-17T15:16:14.969Z,100745.77
2023-03-17T15:18:43.815Z,100744.64
2023-03-17T15:21:27.397Z,100743.29
2023-03-17T15:23:55.553Z,100743.38
2023-03-17T15:26:31.558Z,100746.48
2023-03-17T15:29:00.560Z,100743.31
2023-03-17T15:31:30.309Z,100744.41
2023-03-17T15:33:58.547Z,100744.54
2023-03-17T15:36:32.685Z,100744.59
2023-03-17T15:39:02.656Z,100746.05
2023-03-17T15:41:30.589Z,100741.05
2023-03-17T15:43:58.644Z,100740.89
2023-03-17T15:46:31.164Z,100733.98
2023-03-17T15:49:00.052Z,100734.47
2023-03-17T15:51:28.158Z,100734.80
2023-03-17T15:53:56.142Z,100736.30
2023-03-17T15:56:24.278Z,100741.02
2023-03-17T15:58:52.669Z,100740.27
2023-03-17T16:01:21.381Z,100735.85
2023-03-17T16:03:50.229Z,100728.15
2023-03-17T16:06:21.798Z,100729.89
2023-03-17T16:08:50.346Z,100734.65
2023-03-17T16:11:28.482Z,100738.70
2023-03-17T16:13:59.907Z,100736.58
2023-03-17T16:16:34.058Z,100739.58
2023-03-17T16:19:03.031Z,100732.20
2023-03-17T16:21:32.375Z,100736.27
2023-03-17T16:24:00.596Z,100740.38
2023-03-17T16:26:28.759Z,100741.95
2023-03-17T16:28:57.388Z,100735.58
2023-03-17T16:31:31.807Z,100740.14
2023-03-17T16:34:00.127Z,100744.84
2023-03-17T16:36:28.350Z,100742.64
2023-03-17T16:38:56.243Z,100744.02
2023-03-17T16:41:27.826Z,100746.93
2023-03-17T16:44:01.536Z,100743.42
2023-03-17T16:46:35.072Z,100741.45
2023-03-17T16:49:04.623Z,100743.12
2023-03-17T16:51:32.826Z,100747.67
2023-03-17T16:54:00.805Z,100749.69
2023-03-17T16:56:28.821Z,100750.94
2023-03-17T16:58:57.546Z,100754.81
2023-03-17T17:01:28.025Z,100758.66
2023-03-17T17:03:57.112Z,100761.36
2023-03-17T17:06:25.337Z,100766.00
2023-03-17T17:08:53.407Z,100772.38
2023-03-17T17:11:21.506Z,100775.56
2023-03-17T17:13:49.785Z,100777.56
2023-03-17T17:16:27.123Z,100778.70
2023-03-17T17:18:56.038Z,100776.58
2023-03-17T17:21:24.045Z,100772.20
2023-03-17T17:23:53.225Z,100773.80
2023-03-17T17:26:22.375Z,100771.52
2023-03-17T17:28:50.561Z,100774.52
2023-03-17T17:31:18.625Z,100773.35
2023-03-17T17:33:46.897Z,100774.21
2023-03-17T17:36:17.046Z,100777.55
2023-03-17T17:38:45.596Z,100775.60
2023-03-17T17:41:14.352Z,100779.17
2023-03-17T17:43:42.520Z,100781.52
2023-03-17T17:46:17.933Z,100778.44
2023-03-17T17:48:46.325Z,100775.81
2023-03-17T17:51:14.510Z,100778.06
2023-03-17T17:53:42.428Z,100776.83
2023-03-17T17:56:14.864Z,100779.60
2023-03-17T17:58:43.777Z,100778.02
2023-03-17T18:01:14.334Z,100786.54
2023-03-17T18:03:43.197Z,100791.16
2023-03-17T18:06:13.242Z,100787.58
2023-03-17T18:08:41.525Z,100788.90
2023-03-17T18:11:09.590Z,100791.23
2023-03-17T18:13:39.101Z,100789.94
2023-03-17T18:16:10.099Z,100790.02
2023-03-17T18:18:40.832Z,100787.71
2023-03-17T18:21:09.835Z,100789.46
2023-03-17T18:23:39.337Z,100791.50
2023-03-17T18:26:07.511Z,100789.68
2023-03-17T18:28:36.086Z,100788.91
2023-03-17T18:31:10.581Z,100787.93
2023-03-17T18:33:45.729Z,100790.48
2023-03-17T18:36:14.333Z,100786.90
2023-03-17T18:38:42.347Z,100787.07
2023-03-17T18:41:11.216Z,100783.23
2023-03-17T18:43:41.095Z,100777.91
2023-03-17T18:46:09.131Z,100777.27
2023-03-17T18:48:37.226Z,100776.23
2023-03-17T18:51:05.733Z,100775.36
2023-03-17T18:53:35.439Z,100773.98
2023-03-17T18:56:03.545Z,100771.08
2023-03-17T18:58:31.410Z,100770.06
2023-03-17T19:01:01.552Z,100772.67
2023-03-17T19:03:32.294Z,100771.64
2023-03-17T19:06:13.844Z,100772.27
2023-03-17T19:08:42.679Z,100771.77
2023-03-17T19:11:13.685Z,100774.05
2023-03-17T19:13:42.345Z,100771.58
2023-03-17T19:16:10.722Z,100771.15
2023-03-17T19:18:41.928Z,100772.88
2023-03-17T19:21:12.216Z,100773.98
2023-03-17T19:23:41.437Z,100773.30
2023-03-17T19:26:10.488Z,100772.39
2023-03-17T19:28:38.471Z,100771.73
2023-03-17T19:31:06.642Z,100776.20
2023-03-17T19:33:35.191Z,100774.28
2023-03-17T19:36:08.892Z,100775.13
2023-03-17T19:38:37.430Z,100774.56
2023-03-17T19:41:05.704Z,100774.14
2023-03-17T19:43:40.760Z,100774.04
2023-03-17T19:46:11.524Z,100775.81
2023-03-17T19:48:40.483Z,100774.40
2023-03-17T19:51:09.562Z,100771.46
2023-03-17T19:53:37.648Z,100771.26
2023-03-17T19:56:06.540Z,100770.02
2023-03-17T19:58:34.663Z,100764.25
2023-03-17T20:01:06.977Z,100762.98
2023-03-17T20:03:39.048Z,100763.17
2023-03-17T20:06:08.215Z,100759.80
2023-03-17T20:08:36.462Z,100756.88
2023-03-17T20:11:06.032Z,100756.86
2023-03-17T20:13:35.413Z,100754.50
2023-03-17T20:16:04.194Z,100751.49
2023-03-17T20:18:32.373Z,100747.25
2023-03-17T20:21:01.722Z,100744.80
2023-03-17T20:23:29.804Z,100741.95
2023-03-17T20:25:57.894Z,100736.68
2023-03-17T20:28:25.991Z,100739.47
2023-03-17T20:30:59.603Z,100743.21
2023-03-17T20:33:27.917Z,100739.70
2023-03-17T20:35:55.955Z,100740.44
2023-03-17T20:38:23.996Z,100735.10
2023-03-17T20:40:51.996Z,100735.80
2023-03-17T20:43:19.992Z,100733.65
2023-03-17T20:45:50.713Z,100738.16
2023-03-17T20:48:18.821Z,100739.98
2023-03-17T20:50:50.042Z,100737.73
2023-03-17T20:53:18.357Z,100737.95
2023-03-17T20:55:47.241Z,100731.46
2023-03-17T20:58:15.179Z,100729.27
2023-03-17T21:00:43.339Z,100729.43
2023-03-17T21:03:11.628Z,100728.48
2023-03-17T21:05:39.598Z,100729.80
2023-03-17T21:08:08.949Z,100734.50
2023-03-17T21:10:37.077Z,100735.23
2023-03-17T21:13:04.992Z,100733.44
2023-03-17T21:15:33.093Z,100734.88
2023-03-17T21:18:01.132Z,100729.95
2023-03-17T21:20:29.553Z,100731.41
2023-03-17T21:22:57.909Z,100729.33
2023-03-17T21:25:26.719Z,100729.85
2023-03-17T21:27:54.774Z,100729.89
2023-03-17T21:30:22.663Z,100725.83
2023-03-17T21:32:50.561Z,100726.06
2023-03-17T21:35:18.639Z,100723.16
2023-03-17T21:37:46.482Z,100723.52
2023-03-17T21:40:15.763Z,100720.14
2023-03-17T21:42:43.895Z,100725.32
2023-03-17T21:45:12.565Z,100726.59
2023-03-17T21:47:41.324Z,100725.27
2023-03-17T21:50:09.622Z,100726.65
2023-03-17T21:52:38.133Z,100728.92
2023-03-17T21:55:08.203Z,100729.60
2023-03-17T21:57:37.838Z,100730.87
2023-03-17T22:00:08.332Z,100728.02
2023-03-17T22:02:41.761Z,100730.67
2023-03-17T22:05:10.579Z,100731.92
2023-03-17T22:07:41.114Z,100729.08
2023-03-17T22:10:13.420Z,100733.64
2023-03-17T22:12:41.300Z,100730.08
2023-03-17T22:15:12.604Z,100731.54
2023-03-17T22:17:40.519Z,100728.23
2023-03-17T22:20:10.621Z,100730.56
2023-03-17T22:22:38.630Z,100729.75
2023-03-17T22:25:07.171Z,100729.98
2023-03-17T22:27:35.104Z,100725.08
2023-03-17T22:30:03.920Z,100719.28
2023-03-17T22:32:32.253Z,100720.88
2023-03-17T22:35:00.288Z,100722.55
2023-03-17T22:37:28.288Z,100722.09
2023-03-17T22:40:02.287Z,100719.76
2023-03-17T22:42:30.137Z,100721.48
2023-03-17T22:44:58.744Z,100718.25
2023-03-17T22:47:26.829Z,100717.59
2023-03-17T22:49:54.763Z,100719.73
2023-03-17T22:52:22.768Z,100718.77
2023-03-17T22:54:50.707Z,100719.19
2023-03-17T22:57:18.560Z,100721.45
2023-03-17T22:59:46.641Z,100727.15
2023-03-17T23:02:18.417Z,100726.46
2023-03-17T23:04:46.755Z,100726.40
2023-03-17T23:07:14.809Z,100729.77
2023-03-17T23:09:45.304Z,100726.33
2023-03-17T23:12:13.325Z,100721.70
2023-03-17T23:14:41.214Z,100725.55
2023-03-17T23:17:09.468Z,100724.52
2023-03-17T23:19:37.353Z,100727.79
2023-03-17T23:22:05.382Z,100726.27
2023-03-17T23:24:33.455Z,100726.79
2023-03-17T23:27:01.785Z,100726.66
2023-03-17T23:29:29.738Z,100727.44
2023-03-17T23:31:57.822Z,100726.10
2023-03-17T23:34:25.899Z,100721.51
2023-03-17T23:36:53.962Z,100719.80
2023-03-17T23:39:21.833Z,100722.13
2023-03-17T23:41:50.162Z,100722.53
2023-03-17T23:44:18.130Z,100721.98
2023-03-17T23:46:46.534Z,100720.34
2023-03-17T23:49:14.597Z,100719.31
2023-03-17T23:51:42.823Z,100716.25
2023-03-17T23:54:10.810Z,100709.77
2023-03-17T23:56:38.748Z,100710.86
2023-03-17T23:59:08.164Z,100715.66
